sensor_id;sensor_type;location;lat;lon;timestamp;P1;P2;P0
71794;PMS7003;59641;45.188;5.712;2024-02-23T00:01:23;0.25;0.25;0.00
71794;PMS7003;59641;45.188;5.712;2024-02-23T00:03:49;0.00;0.00;0.00
71794;PMS7003;59641;45.188;5.712;2024-02-23T00:06:14;0.00;0.00;0.00
71794;PMS7003;59641;45.188;5.712;2024-02-23T00:08:39;0.00;0.00;0.00
71794;PMS7003;59641;45.188;5.712;2024-02-23T00:11:06;0.00;0.00;0.00
71794;PMS7003;59641;45.188;5.712;2024-02-23T00:13:31;0.00;0.00;0.00
71794;PMS7003;59641;45.188;5.712;2024-02-23T00:15:57;0.00;0.00;0.00
71794;PMS7003;59641;45.188;5.712;2024-02-23T00:18:22;0.25;0.25;0.00
71794;PMS7003;59641;45.188;5.712;2024-02-23T00:20:47;0.00;0.00;0.00
71794;PMS7003;59641;45.188;5.712;2024-02-23T00:23:13;0.00;0.00;0.00
71794;PMS7003;59641;45.188;5.712;2024-02-23T00:25:38;0.00;0.00;0.00
71794;PMS7003;59641;45.188;5.712;2024-02-23T00:28:04;0.00;0.00;0.00
71794;PMS7003;59641;45.188;5.712;2024-02-23T00:30:29;0.50;0.00;0.00
71794;PMS7003;59641;45.188;5.712;2024-02-23T00:32:55;0.00;0.00;0.00
71794;PMS7003;59641;45.188;5.712;2024-02-23T00:35:20;0.00;0.00;0.00
71794;PMS7003;59641;45.188;5.712;2024-02-23T00:37:46;0.00;0.00;0.00
71794;PMS7003;59641;45.188;5.712;2024-02-23T00:40:11;0.00;0.00;0.00
71794;PMS7003;59641;45.188;5.712;2024-02-23T00:42:37;0.00;0.00;0.00
71794;PMS7003;59641;45.188;5.712;2024-02-23T00:45:02;0.00;0.00;0.00
71794;PMS7003;59641;45.188;5.712;2024-02-23T00:47:28;0.00;0.00;0.00
71794;PMS7003;59641;45.188;5.712;2024-02-23T00:49:53;0.00;0.00;0.00
71794;PMS7003;59641;45.188;5.712;2024-02-23T00:52:19;0.50;0.00;0.00
71794;PMS7003;59641;45.188;5.712;2024-02-23T00:54:44;1.00;0.00;0.00
71794;PMS7003;59641;45.188;5.712;2024-02-23T00:57:10;0.00;0.00;0.00
71794;PMS7003;59641;45.188;5.712;2024-02-23T00:59:36;0.00;0.00;0.00
71794;PMS7003;59641;45.188;5.712;2024-02-23T01:02:01;0.00;0.00;0.00
71794;PMS7003;59641;45.188;5.712;2024-02-23T01:04:26;0.00;0.00;0.00
71794;PMS7003;59641;45.188;5.712;2024-02-23T01:06:52;0.00;0.00;0.00
71794;PMS7003;59641;45.188;5.712;2024-02-23T01:09:17;0.00;0.00;0.00
71794;PMS7003;59641;45.188;5.712;2024-02-23T01:11:45;0.00;0.00;0.00
71794;PMS7003;59641;45.188;5.712;2024-02-23T01:14:13;0.00;0.00;0.00
71794;PMS7003;59641;45.188;5.712;2024-02-23T01:16:39;0.00;0.00;0.00
71794;PMS7003;59641;45.188;5.712;2024-02-23T01:19:04;0.00;0.00;0.00
71794;PMS7003;59641;45.188;5.712;2024-02-23T01:21:29;0.00;0.00;0.00
71794;PMS7003;59641;45.188;5.712;2024-02-23T01:23:55;0.00;0.00;0.00
71794;PMS7003;59641;45.188;5.712;2024-02-23T01:26:22;0.00;0.00;0.00
71794;PMS7003;59641;45.188;5.712;2024-02-23T01:28:47;0.00;0.00;0.00
71794;PMS7003;59641;45.188;5.712;2024-02-23T01:31:13;0.00;0.00;0.00
71794;PMS7003;59641;45.188;5.712;2024-02-23T01:33:39;0.00;0.00;0.00
71794;PMS7003;59641;45.188;5.712;2024-02-23T01:36:05;0.00;0.00;0.00
71794;PMS7003;59641;45.188;5.712;2024-02-23T01:38:30;0.00;0.00;0.00
71794;PMS7003;59641;45.188;5.712;2024-02-23T01:40:57;0.00;0.00;0.00
71794;PMS7003;59641;45.188;5.712;2024-02-23T01:43:25;0.00;0.00;0.00
71794;PMS7003;59641;45.188;5.712;2024-02-23T01:45:51;0.00;0.00;0.00
71794;PMS7003;59641;45.188;5.712;2024-02-23T01:48:16;0.00;0.00;0.00
71794;PMS7003;59641;45.188;5.712;2024-02-23T01:50:43;0.25;0.00;0.00
71794;PMS7003;59641;45.188;5.712;2024-02-23T01:53:09;0.00;0.00;0.00
71794;PMS7003;59641;45.188;5.712;2024-02-23T01:55:37;0.20;0.00;0.00
71794;PMS7003;59641;45.188;5.712;2024-02-23T01:58:05;0.00;0.00;0.00
71794;PMS7003;59641;45.188;5.712;2024-02-23T02:00:31;0.25;0.00;0.00
71794;PMS7003;59641;45.188;5.712;2024-02-23T02:02:57;0.00;0.00;0.00
71794;PMS7003;59641;45.188;5.712;2024-02-23T02:05:23;0.00;0.00;0.00
71794;PMS7003;59641;45.188;5.712;2024-02-23T02:07:53;0.00;0.00;0.00
71794;PMS7003;59641;45.188;5.712;2024-02-23T02:10:23;0.00;0.00;0.00
71794;PMS7003;59641;45.188;5.712;2024-02-23T02:12:49;0.00;0.00;0.00
71794;PMS7003;59641;45.188;5.712;2024-02-23T02:15:14;0.00;0.00;0.00
71794;PMS7003;59641;45.188;5.712;2024-02-23T02:17:39;0.00;0.00;0.00
71794;PMS7003;59641;45.188;5.712;2024-02-23T02:20:05;0.00;0.00;0.00
71794;PMS7003;59641;45.188;5.712;2024-02-23T02:22:35;0.00;0.00;0.00
71794;PMS7003;59641;45.188;5.712;2024-02-23T02:25:01;0.00;0.00;0.00
71794;PMS7003;59641;45.188;5.712;2024-02-23T02:27:26;0.00;0.00;0.00
71794;PMS7003;59641;45.188;5.712;2024-02-23T02:29:51;0.00;0.00;0.00
71794;PMS7003;59641;45.188;5.712;2024-02-23T02:32:17;0.00;0.00;0.00
71794;PMS7003;59641;45.188;5.712;2024-02-23T02:34:43;0.00;0.00;0.00
71794;PMS7003;59641;45.188;5.712;2024-02-23T02:37:08;0.00;0.00;0.00
71794;PMS7003;59641;45.188;5.712;2024-02-23T02:39:33;0.00;0.00;0.00
71794;PMS7003;59641;45.188;5.712;2024-02-23T02:41:59;0.00;0.00;0.00
71794;PMS7003;59641;45.188;5.712;2024-02-23T02:44:24;0.00;0.00;0.00
71794;PMS7003;59641;45.188;5.712;2024-02-23T02:46:51;0.00;0.00;0.00
71794;PMS7003;59641;45.188;5.712;2024-02-23T02:49:16;0.00;0.00;0.00
71794;PMS7003;59641;45.188;5.712;2024-02-23T02:51:42;0.00;0.00;0.00
71794;PMS7003;59641;45.188;5.712;2024-02-23T02:54:07;0.00;0.00;0.00
71794;PMS7003;59641;45.188;5.712;2024-02-23T02:56:32;0.00;0.00;0.00
71794;PMS7003;59641;45.188;5.712;2024-02-23T02:58:58;0.00;0.00;0.00
71794;PMS7003;59641;45.188;5.712;2024-02-23T03:01:23;1.00;0.00;0.00
71794;PMS7003;59641;45.188;5.712;2024-02-23T03:03:48;0.00;0.00;0.00
71794;PMS7003;59641;45.188;5.712;2024-02-23T03:06:14;0.00;0.00;0.00
71794;PMS7003;59641;45.188;5.712;2024-02-23T03:08:41;0.00;0.00;0.00
71794;PMS7003;59641;45.188;5.712;2024-02-23T03:11:07;0.00;0.00;0.00
71794;PMS7003;59641;45.188;5.712;2024-02-23T03:13:32;0.00;0.00;0.00
71794;PMS7003;59641;45.188;5.712;2024-02-23T03:15:58;0.00;0.00;0.00
71794;PMS7003;59641;45.188;5.712;2024-02-23T03:18:23;0.00;0.00;0.00
71794;PMS7003;59641;45.188;5.712;2024-02-23T03:20:48;0.00;0.00;0.00
71794;PMS7003;59641;45.188;5.712;2024-02-23T03:23:14;0.00;0.00;0.00
71794;PMS7003;59641;45.188;5.712;2024-02-23T03:25:39;0.00;0.00;0.00
71794;PMS7003;59641;45.188;5.712;2024-02-23T03:28:05;0.00;0.00;0.00
71794;PMS7003;59641;45.188;5.712;2024-02-23T03:30:30;0.00;0.00;0.00
71794;PMS7003;59641;45.188;5.712;2024-02-23T03:32:55;0.00;0.00;0.00
71794;PMS7003;59641;45.188;5.712;2024-02-23T03:35:21;0.00;0.00;0.00
71794;PMS7003;59641;45.188;5.712;2024-02-23T03:37:46;0.00;0.00;0.00
71794;PMS7003;59641;45.188;5.712;2024-02-23T03:40:11;0.00;0.00;0.00
71794;PMS7003;59641;45.188;5.712;2024-02-23T03:42:37;0.00;0.00;0.00
71794;PMS7003;59641;45.188;5.712;2024-02-23T03:45:03;0.00;0.00;0.00
71794;PMS7003;59641;45.188;5.712;2024-02-23T03:47:29;0.00;0.00;0.00
71794;PMS7003;59641;45.188;5.712;2024-02-23T03:49:54;1.00;0.00;0.00
71794;PMS7003;59641;45.188;5.712;2024-02-23T03:52:20;0.00;0.00;0.00
71794;PMS7003;59641;45.188;5.712;2024-02-23T03:54:45;0.00;0.00;0.00
71794;PMS7003;59641;45.188;5.712;2024-02-23T03:57:11;0.00;0.00;0.00
71794;PMS7003;59641;45.188;5.712;2024-02-23T03:59:36;0.00;0.00;0.00
71794;PMS7003;59641;45.188;5.712;2024-02-23T04:02:02;0.00;0.00;0.00
71794;PMS7003;59641;45.188;5.712;2024-02-23T04:04:28;1.00;0.00;0.00
71794;PMS7003;59641;45.188;5.712;2024-02-23T04:06:53;0.00;0.00;0.00
71794;PMS7003;59641;45.188;5.712;2024-02-23T04:09:19;0.00;0.00;0.00
71794;PMS7003;59641;45.188;5.712;2024-02-23T04:11:47;0.00;0.00;0.00
71794;PMS7003;59641;45.188;5.712;2024-02-23T04:14:12;1.00;0.00;0.00
71794;PMS7003;59641;45.188;5.712;2024-02-23T04:16:38;0.00;0.00;0.00
71794;PMS7003;59641;45.188;5.712;2024-02-23T04:19:03;0.00;0.00;0.00
71794;PMS7003;59641;45.188;5.712;2024-02-23T04:21:28;0.00;0.00;0.00
71794;PMS7003;59641;45.188;5.712;2024-02-23T04:23:54;0.00;0.00;0.00
71794;PMS7003;59641;45.188;5.712;2024-02-23T04:26:19;0.00;0.00;0.00
71794;PMS7003;59641;45.188;5.712;2024-02-23T04:28:44;0.50;0.00;0.00
71794;PMS7003;59641;45.188;5.712;2024-02-23T04:31:10;0.00;0.00;0.00
71794;PMS7003;59641;45.188;5.712;2024-02-23T04:33:36;1.00;0.00;0.00
71794;PMS7003;59641;45.188;5.712;2024-02-23T04:36:04;0.00;0.00;0.00
71794;PMS7003;59641;45.188;5.712;2024-02-23T04:38:30;0.00;0.00;0.00
71794;PMS7003;59641;45.188;5.712;2024-02-23T04:40:56;0.00;0.00;0.00
71794;PMS7003;59641;45.188;5.712;2024-02-23T04:43:21;0.00;0.00;0.00
71794;PMS7003;59641;45.188;5.712;2024-02-23T04:45:48;0.00;0.00;0.00
71794;PMS7003;59641;45.188;5.712;2024-02-23T04:48:13;0.00;0.00;0.00
71794;PMS7003;59641;45.188;5.712;2024-02-23T04:50:38;0.00;0.00;0.00
71794;PMS7003;59641;45.188;5.712;2024-02-23T04:53:04;0.00;0.00;0.00
71794;PMS7003;59641;45.188;5.712;2024-02-23T04:55:29;0.00;0.00;0.00
71794;PMS7003;59641;45.188;5.712;2024-02-23T04:57:54;0.00;0.00;0.00
71794;PMS7003;59641;45.188;5.712;2024-02-23T05:00:20;0.00;0.00;0.00
71794;PMS7003;59641;45.188;5.712;2024-02-23T05:02:46;0.00;0.00;0.00
71794;PMS7003;59641;45.188;5.712;2024-02-23T05:05:11;0.00;0.00;0.00
71794;PMS7003;59641;45.188;5.712;2024-02-23T05:07:37;0.00;0.00;0.00
71794;PMS7003;59641;45.188;5.712;2024-02-23T05:10:02;0.00;0.00;0.00
71794;PMS7003;59641;45.188;5.712;2024-02-23T05:12:29;0.00;0.00;0.00
71794;PMS7003;59641;45.188;5.712;2024-02-23T05:14:54;0.00;0.00;0.00
71794;PMS7003;59641;45.188;5.712;2024-02-23T05:17:19;0.00;0.00;0.00
71794;PMS7003;59641;45.188;5.712;2024-02-23T05:19:45;0.00;0.00;0.00
71794;PMS7003;59641;45.188;5.712;2024-02-23T05:22:11;0.00;0.00;0.00
71794;PMS7003;59641;45.188;5.712;2024-02-23T05:24:36;0.00;0.00;0.00
71794;PMS7003;59641;45.188;5.712;2024-02-23T05:27:02;1.00;1.00;1.00
71794;PMS7003;59641;45.188;5.712;2024-02-23T05:29:27;0.00;0.00;0.00
71794;PMS7003;59641;45.188;5.712;2024-02-23T05:31:53;1.00;0.25;0.00
71794;PMS7003;59641;45.188;5.712;2024-02-23T05:34:19;2.00;1.00;1.00
71794;PMS7003;59641;45.188;5.712;2024-02-23T05:36:44;1.00;1.00;1.00
71794;PMS7003;59641;45.188;5.712;2024-02-23T05:39:11;0.40;0.40;0.40
71794;PMS7003;59641;45.188;5.712;2024-02-23T05:41:37;1.00;1.00;0.00
71794;PMS7003;59641;45.188;5.712;2024-02-23T05:44:03;1.00;0.00;0.00
71794;PMS7003;59641;45.188;5.712;2024-02-23T05:46:31;2.00;0.00;0.00
71794;PMS7003;59641;45.188;5.712;2024-02-23T05:48:57;0.20;0.20;0.00
71794;PMS7003;59641;45.188;5.712;2024-02-23T05:51:23;1.00;1.00;1.00
71794;PMS7003;59641;45.188;5.712;2024-02-23T05:53:48;0.25;0.25;0.00
71794;PMS7003;59641;45.188;5.712;2024-02-23T05:56:14;0.00;0.00;0.00
71794;PMS7003;59641;45.188;5.712;2024-02-23T05:58:39;1.50;1.50;0.25
71794;PMS7003;59641;45.188;5.712;2024-02-23T06:01:04;0.25;0.25;0.00
71794;PMS7003;59641;45.188;5.712;2024-02-23T06:03:30;0.25;0.25;0.00
71794;PMS7003;59641;45.188;5.712;2024-02-23T06:05:55;0.00;0.00;0.00
71794;PMS7003;59641;45.188;5.712;2024-02-23T06:08:20;1.00;1.00;0.00
71794;PMS7003;59641;45.188;5.712;2024-02-23T06:10:46;2.00;2.00;1.00
71794;PMS7003;59641;45.188;5.712;2024-02-23T06:13:11;0.75;0.25;0.00
71794;PMS7003;59641;45.188;5.712;2024-02-23T06:15:36;1.00;1.00;0.00
71794;PMS7003;59641;45.188;5.712;2024-02-23T06:18:03;0.00;0.00;0.00
71794;PMS7003;59641;45.188;5.712;2024-02-23T06:20:29;0.50;0.50;0.00
71794;PMS7003;59641;45.188;5.712;2024-02-23T06:22:54;2.00;0.50;0.50
71794;PMS7003;59641;45.188;5.712;2024-02-23T06:25:20;0.25;0.25;0.00
71794;PMS7003;59641;45.188;5.712;2024-02-23T06:27:45;0.00;0.00;0.00
71794;PMS7003;59641;45.188;5.712;2024-02-23T06:30:10;0.00;0.00;0.00
71794;PMS7003;59641;45.188;5.712;2024-02-23T06:32:36;1.00;1.00;0.00
71794;PMS7003;59641;45.188;5.712;2024-02-23T06:35:01;0.00;0.00;0.00
71794;PMS7003;59641;45.188;5.712;2024-02-23T06:37:28;0.00;0.00;0.00
71794;PMS7003;59641;45.188;5.712;2024-02-23T06:39:53;0.00;0.00;0.00
71794;PMS7003;59641;45.188;5.712;2024-02-23T06:42:22;0.00;0.00;0.00
71794;PMS7003;59641;45.188;5.712;2024-02-23T06:44:47;0.60;0.00;0.00
71794;PMS7003;59641;45.188;5.712;2024-02-23T06:47:13;1.80;1.00;0.00
71794;PMS7003;59641;45.188;5.712;2024-02-23T06:49:42;0.25;0.25;0.00
71794;PMS7003;59641;45.188;5.712;2024-02-23T06:52:08;0.60;0.60;0.20
71794;PMS7003;59641;45.188;5.712;2024-02-23T06:54:34;1.75;0.75;0.00
71794;PMS7003;59641;45.188;5.712;2024-02-23T06:56:59;1.00;1.00;0.50
71794;PMS7003;59641;45.188;5.712;2024-02-23T06:59:25;1.00;1.00;0.50
71794;PMS7003;59641;45.188;5.712;2024-02-23T07:01:50;1.25;1.25;1.00
71794;PMS7003;59641;45.188;5.712;2024-02-23T07:04:16;2.00;2.00;1.40
71794;PMS7003;59641;45.188;5.712;2024-02-23T07:06:42;2.00;2.00;2.00
71794;PMS7003;59641;45.188;5.712;2024-02-23T07:09:08;2.00;2.00;1.00
71794;PMS7003;59641;45.188;5.712;2024-02-23T07:11:34;3.00;2.00;2.00
71794;PMS7003;59641;45.188;5.712;2024-02-23T07:13:59;1.00;1.00;1.00
71794;PMS7003;59641;45.188;5.712;2024-02-23T07:16:24;3.00;2.00;1.25
71794;PMS7003;59641;45.188;5.712;2024-02-23T07:18:50;2.75;2.00;1.00
71794;PMS7003;59641;45.188;5.712;2024-02-23T07:21:18;2.00;2.00;1.00
71794;PMS7003;59641;45.188;5.712;2024-02-23T07:23:44;1.60;1.60;1.60
71794;PMS7003;59641;45.188;5.712;2024-02-23T07:26:09;2.25;2.25;1.75
71794;PMS7003;59641;45.188;5.712;2024-02-23T07:28:34;2.00;2.00;1.75
71794;PMS7003;59641;45.188;5.712;2024-02-23T07:31:00;2.00;2.00;2.00
71794;PMS7003;59641;45.188;5.712;2024-02-23T07:33:25;2.75;2.75;2.00
71794;PMS7003;59641;45.188;5.712;2024-02-23T07:35:50;3.00;3.00;2.00
71794;PMS7003;59641;45.188;5.712;2024-02-23T07:38:16;4.25;3.00;2.00
71794;PMS7003;59641;45.188;5.712;2024-02-23T07:40:43;3.00;2.00;1.75
71794;PMS7003;59641;45.188;5.712;2024-02-23T07:43:09;2.75;2.75;2.00
71794;PMS7003;59641;45.188;5.712;2024-02-23T07:45:38;3.00;2.75;2.50
71794;PMS7003;59641;45.188;5.712;2024-02-23T07:48:03;4.50;4.50;2.00
71794;PMS7003;59641;45.188;5.712;2024-02-23T07:50:29;4.25;4.25;3.00
71794;PMS7003;59641;45.188;5.712;2024-02-23T07:52:54;4.00;4.00;2.50
71794;PMS7003;59641;45.188;5.712;2024-02-23T07:55:20;6.50;4.50;3.00
71794;PMS7003;59641;45.188;5.712;2024-02-23T07:57:45;3.50;3.50;3.00
71794;PMS7003;59641;45.188;5.712;2024-02-23T08:00:11;4.75;4.75;3.00
71794;PMS7003;59641;45.188;5.712;2024-02-23T08:02:37;4.00;4.00;3.00
71794;PMS7003;59641;45.188;5.712;2024-02-23T08:05:03;2.00;2.00;2.00
71794;PMS7003;59641;45.188;5.712;2024-02-23T08:07:29;6.75;4.00;2.50
71794;PMS7003;59641;45.188;5.712;2024-02-23T08:09:55;3.50;3.50;3.00
71794;PMS7003;59641;45.188;5.712;2024-02-23T08:12:21;4.00;2.00;2.00
71794;PMS7003;59641;45.188;5.712;2024-02-23T08:14:46;4.00;4.00;3.75
71794;PMS7003;59641;45.188;5.712;2024-02-23T08:17:14;3.20;3.20;2.40
71794;PMS7003;59641;45.188;5.712;2024-02-23T08:19:39;3.75;3.00;2.00
71794;PMS7003;59641;45.188;5.712;2024-02-23T08:22:04;2.50;2.50;2.00
71794;PMS7003;59641;45.188;5.712;2024-02-23T08:24:30;2.00;2.00;2.00
71794;PMS7003;59641;45.188;5.712;2024-02-23T08:26:55;4.00;4.00;2.50
71794;PMS7003;59641;45.188;5.712;2024-02-23T08:29:20;4.75;4.75;3.00
71794;PMS7003;59641;45.188;5.712;2024-02-23T08:31:46;4.50;4.50;3.50
71794;PMS7003;59641;45.188;5.712;2024-02-23T08:34:11;4.00;4.00;3.50
71794;PMS7003;59641;45.188;5.712;2024-02-23T08:36:37;5.00;3.25;3.25
71794;PMS7003;59641;45.188;5.712;2024-02-23T08:39:02;4.75;4.50;3.00
71794;PMS7003;59641;45.188;5.712;2024-02-23T08:41:28;5.50;5.50;4.00
71794;PMS7003;59641;45.188;5.712;2024-02-23T08:43:53;4.00;3.50;3.50
71794;PMS7003;59641;45.188;5.712;2024-02-23T08:46:20;6.25;5.00;3.00
71794;PMS7003;59641;45.188;5.712;2024-02-23T08:48:46;4.00;4.00;4.00
71794;PMS7003;59641;45.188;5.712;2024-02-23T08:51:12;8.00;6.00;4.25
71794;PMS7003;59641;45.188;5.712;2024-02-23T08:53:37;4.50;4.50;3.00
71794;PMS7003;59641;45.188;5.712;2024-02-23T08:56:03;6.50;5.25;4.50
71794;PMS7003;59641;45.188;5.712;2024-02-23T08:58:28;5.00;5.00;4.00
71794;PMS7003;59641;45.188;5.712;2024-02-23T09:00:54;5.00;5.00;2.25
71794;PMS7003;59641;45.188;5.712;2024-02-23T09:03:19;10.00;8.25;7.00
71794;PMS7003;59641;45.188;5.712;2024-02-23T09:05:44;7.00;6.25;5.00
71794;PMS7003;59641;45.188;5.712;2024-02-23T09:08:12;4.00;4.00;4.00
71794;PMS7003;59641;45.188;5.712;2024-02-23T09:10:37;5.25;5.25;4.00
71794;PMS7003;59641;45.188;5.712;2024-02-23T09:13:02;5.50;4.75;4.25
71794;PMS7003;59641;45.188;5.712;2024-02-23T09:15:28;7.50;5.75;5.00
71794;PMS7003;59641;45.188;5.712;2024-02-23T09:17:53;6.00;6.00;5.00
71794;PMS7003;59641;45.188;5.712;2024-02-23T09:20:19;9.75;8.00;6.00
71794;PMS7003;59641;45.188;5.712;2024-02-23T09:22:44;5.50;5.00;4.25
71794;PMS7003;59641;45.188;5.712;2024-02-23T09:25:09;7.50;7.00;5.25
71794;PMS7003;59641;45.188;5.712;2024-02-23T09:27:35;9.00;9.00;7.00
71794;PMS7003;59641;45.188;5.712;2024-02-23T09:30:04;4.75;4.75;4.00
71794;PMS7003;59641;45.188;5.712;2024-02-23T09:32:29;5.00;5.00;4.75
71794;PMS7003;59641;45.188;5.712;2024-02-23T09:34:55;6.00;6.00;5.00
71794;PMS7003;59641;45.188;5.712;2024-02-23T09:37:20;7.00;7.00;6.00
71794;PMS7003;59641;45.188;5.712;2024-02-23T09:39:45;8.75;8.75;6.50
71794;PMS7003;59641;45.188;5.712;2024-02-23T09:42:11;11.00;9.75;7.00
71794;PMS7003;59641;45.188;5.712;2024-02-23T09:44:36;10.25;9.75;6.25
71794;PMS7003;59641;45.188;5.712;2024-02-23T09:47:05;8.00;7.75;7.00
71794;PMS7003;59641;45.188;5.712;2024-02-23T09:49:38;9.00;9.00;8.00
71794;PMS7003;59641;45.188;5.712;2024-02-23T09:52:07;11.25;7.50;6.50
71794;PMS7003;59641;45.188;5.712;2024-02-23T09:54:38;6.40;6.40;4.40
71794;PMS7003;59641;45.188;5.712;2024-02-23T09:57:06;4.40;3.60;2.60
71794;PMS7003;59641;45.188;5.712;2024-02-23T09:59:33;3.00;1.50;1.00
71794;PMS7003;59641;45.188;5.712;2024-02-23T10:01:59;2.00;2.00;1.50
71794;PMS7003;59641;45.188;5.712;2024-02-23T10:04:25;1.50;1.50;1.00
71794;PMS7003;59641;45.188;5.712;2024-02-23T10:06:54;1.00;1.00;0.40
71794;PMS7003;59641;45.188;5.712;2024-02-23T10:09:20;1.00;1.00;0.75
71794;PMS7003;59641;45.188;5.712;2024-02-23T10:11:51;1.50;1.50;1.00
71794;PMS7003;59641;45.188;5.712;2024-02-23T10:14:17;1.00;1.00;0.60
71794;PMS7003;59641;45.188;5.712;2024-02-23T10:16:42;1.00;1.00;1.00
71794;PMS7003;59641;45.188;5.712;2024-02-23T10:19:08;2.00;2.00;1.00
71794;PMS7003;59641;45.188;5.712;2024-02-23T10:21:33;1.25;1.25;0.50
71794;PMS7003;59641;45.188;5.712;2024-02-23T10:23:59;2.00;2.00;1.00
71794;PMS7003;59641;45.188;5.712;2024-02-23T10:26:24;1.50;1.50;1.00
71794;PMS7003;59641;45.188;5.712;2024-02-23T10:28:51;1.40;1.40;0.80
71794;PMS7003;59641;45.188;5.712;2024-02-23T10:31:16;1.50;1.50;0.25
71794;PMS7003;59641;45.188;5.712;2024-02-23T10:33:42;1.00;1.00;0.50
71794;PMS7003;59641;45.188;5.712;2024-02-23T10:36:09;3.00;2.20;1.00
71794;PMS7003;59641;45.188;5.712;2024-02-23T10:38:40;2.00;2.00;1.60
71794;PMS7003;59641;45.188;5.712;2024-02-23T10:41:06;2.00;2.00;1.00
71794;PMS7003;59641;45.188;5.712;2024-02-23T10:43:36;2.00;2.00;1.40
71794;PMS7003;59641;45.188;5.712;2024-02-23T10:46:12;2.00;1.00;0.00
71794;PMS7003;59641;45.188;5.712;2024-02-23T10:48:40;2.40;1.00;1.00
71794;PMS7003;59641;45.188;5.712;2024-02-23T10:51:07;3.50;3.00;2.00
71794;PMS7003;59641;45.188;5.712;2024-02-23T10:53:34;1.40;1.40;1.40
71794;PMS7003;59641;45.188;5.712;2024-02-23T10:56:00;3.60;2.00;1.00
71794;PMS7003;59641;45.188;5.712;2024-02-23T10:58:26;1.00;1.00;1.00
71794;PMS7003;59641;45.188;5.712;2024-02-23T11:00:52;2.00;2.00;1.00
71794;PMS7003;59641;45.188;5.712;2024-02-23T11:03:23;4.60;2.00;1.00
71794;PMS7003;59641;45.188;5.712;2024-02-23T11:05:48;2.00;2.00;1.75
71794;PMS7003;59641;45.188;5.712;2024-02-23T11:08:16;1.00;1.00;1.00
71794;PMS7003;59641;45.188;5.712;2024-02-23T11:10:50;1.40;1.40;1.00
71794;PMS7003;59641;45.188;5.712;2024-02-23T11:13:17;1.80;1.80;1.00
71794;PMS7003;59641;45.188;5.712;2024-02-23T11:15:42;1.25;1.00;0.00
71794;PMS7003;59641;45.188;5.712;2024-02-23T11:18:50;1.00;1.00;1.00
71794;PMS7003;59641;45.188;5.712;2024-02-23T11:20:59;1.00;0.60;0.60
71794;PMS7003;59641;45.188;5.712;2024-02-23T11:23:26;1.40;1.20;1.00
71794;PMS7003;59641;45.188;5.712;2024-02-23T11:26:25;2.00;2.00;0.50
71794;PMS7003;59641;45.188;5.712;2024-02-23T11:28:47;2.00;2.00;1.00
71794;PMS7003;59641;45.188;5.712;2024-02-23T11:31:14;3.00;1.80;1.00
71794;PMS7003;59641;45.188;5.712;2024-02-23T11:33:47;1.00;0.00;0.00
71794;PMS7003;59641;45.188;5.712;2024-02-23T11:36:29;0.80;0.00;0.00
71794;PMS7003;59641;45.188;5.712;2024-02-23T11:38:57;1.00;1.00;1.00
71794;PMS7003;59641;45.188;5.712;2024-02-23T11:41:24;0.20;0.20;0.20
71794;PMS7003;59641;45.188;5.712;2024-02-23T11:43:50;0.00;0.00;0.00
71794;PMS7003;59641;45.188;5.712;2024-02-23T11:46:17;0.80;0.00;0.00
71794;PMS7003;59641;45.188;5.712;2024-02-23T11:48:43;0.00;0.00;0.00
71794;PMS7003;59641;45.188;5.712;2024-02-23T11:51:09;0.00;0.00;0.00
71794;PMS7003;59641;45.188;5.712;2024-02-23T11:53:38;0.80;0.80;0.20
71794;PMS7003;59641;45.188;5.712;2024-02-23T11:56:04;0.40;0.40;0.00
71794;PMS7003;59641;45.188;5.712;2024-02-23T11:58:30;0.80;0.80;0.00
71794;PMS7003;59641;45.188;5.712;2024-02-23T12:00:57;0.00;0.00;0.00
71794;PMS7003;59641;45.188;5.712;2024-02-23T12:03:23;0.00;0.00;0.00
71794;PMS7003;59641;45.188;5.712;2024-02-23T12:05:50;0.00;0.00;0.00
71794;PMS7003;59641;45.188;5.712;2024-02-23T12:08:15;1.00;1.00;0.00
71794;PMS7003;59641;45.188;5.712;2024-02-23T12:10:42;0.00;0.00;0.00
71794;PMS7003;59641;45.188;5.712;2024-02-23T12:13:08;0.00;0.00;0.00
71794;PMS7003;59641;45.188;5.712;2024-02-23T12:15:33;0.50;0.50;0.50
71794;PMS7003;59641;45.188;5.712;2024-02-23T12:17:59;0.75;0.75;0.00
71794;PMS7003;59641;45.188;5.712;2024-02-23T12:20:27;1.20;0.00;0.00
71794;PMS7003;59641;45.188;5.712;2024-02-23T12:22:54;0.00;0.00;0.00
71794;PMS7003;59641;45.188;5.712;2024-02-23T12:25:20;0.00;0.00;0.00
71794;PMS7003;59641;45.188;5.712;2024-02-23T12:27:46;0.00;0.00;0.00
71794;PMS7003;59641;45.188;5.712;2024-02-23T12:30:15;0.80;0.80;0.00
71794;PMS7003;59641;45.188;5.712;2024-02-23T12:32:42;1.40;0.80;0.40
71794;PMS7003;59641;45.188;5.712;2024-02-23T12:35:07;0.75;0.75;0.00
71794;PMS7003;59641;45.188;5.712;2024-02-23T12:37:35;0.20;0.00;0.00
71794;PMS7003;59641;45.188;5.712;2024-02-23T12:40:01;1.50;0.00;0.00
71794;PMS7003;59641;45.188;5.712;2024-02-23T12:42:26;1.50;0.50;0.50
71794;PMS7003;59641;45.188;5.712;2024-02-23T12:44:51;0.75;0.75;0.50
71794;PMS7003;59641;45.188;5.712;2024-02-23T12:47:17;2.75;1.25;0.00
71794;PMS7003;59641;45.188;5.712;2024-02-23T12:49:42;3.50;1.50;0.50
71794;PMS7003;59641;45.188;5.712;2024-02-23T12:52:07;1.50;0.50;0.00
71794;PMS7003;59641;45.188;5.712;2024-02-23T12:54:33;0.50;0.50;0.00
71794;PMS7003;59641;45.188;5.712;2024-02-23T12:56:58;1.25;0.25;0.00
71794;PMS7003;59641;45.188;5.712;2024-02-23T12:59:23;0.00;0.00;0.00
71794;PMS7003;59641;45.188;5.712;2024-02-23T13:01:49;1.00;1.00;0.00
71794;PMS7003;59641;45.188;5.712;2024-02-23T13:04:14;0.00;0.00;0.00
71794;PMS7003;59641;45.188;5.712;2024-02-23T13:06:39;1.25;0.25;0.00
71794;PMS7003;59641;45.188;5.712;2024-02-23T13:09:05;0.75;0.75;0.00
71794;PMS7003;59641;45.188;5.712;2024-02-23T13:11:33;0.00;0.00;0.00
71794;PMS7003;59641;45.188;5.712;2024-02-23T13:13:59;1.80;1.80;1.00
71794;PMS7003;59641;45.188;5.712;2024-02-23T13:16:25;1.00;1.00;0.75
71794;PMS7003;59641;45.188;5.712;2024-02-23T13:18:50;0.75;0.75;0.75
71794;PMS7003;59641;45.188;5.712;2024-02-23T13:21:16;2.50;1.25;1.25
71794;PMS7003;59641;45.188;5.712;2024-02-23T13:23:41;1.50;0.50;0.00
71794;PMS7003;59641;45.188;5.712;2024-02-23T13:26:08;0.60;0.40;0.00
71794;PMS7003;59641;45.188;5.712;2024-02-23T13:28:35;2.20;0.40;0.00
71794;PMS7003;59641;45.188;5.712;2024-02-23T13:31:01;0.50;0.50;0.00
71794;PMS7003;59641;45.188;5.712;2024-02-23T13:33:27;0.00;0.00;0.00
71794;PMS7003;59641;45.188;5.712;2024-02-23T13:35:53;0.00;0.00;0.00
71794;PMS7003;59641;45.188;5.712;2024-02-23T13:38:18;0.00;0.00;0.00
71794;PMS7003;59641;45.188;5.712;2024-02-23T13:40:44;0.00;0.00;0.00
71794;PMS7003;59641;45.188;5.712;2024-02-23T13:43:09;0.50;0.50;0.00
71794;PMS7003;59641;45.188;5.712;2024-02-23T13:45:47;0.00;0.00;0.00
71794;PMS7003;59641;45.188;5.712;2024-02-23T13:48:16;0.00;0.00;0.00
71794;PMS7003;59641;45.188;5.712;2024-02-23T13:50:43;0.60;0.40;0.00
71794;PMS7003;59641;45.188;5.712;2024-02-23T13:53:10;0.00;0.00;0.00
71794;PMS7003;59641;45.188;5.712;2024-02-23T13:55:37;0.00;0.00;0.00
71794;PMS7003;59641;45.188;5.712;2024-02-23T13:58:02;0.00;0.00;0.00
71794;PMS7003;59641;45.188;5.712;2024-02-23T14:00:27;0.50;0.00;0.00
71794;PMS7003;59641;45.188;5.712;2024-02-23T14:02:53;0.00;0.00;0.00
71794;PMS7003;59641;45.188;5.712;2024-02-23T14:05:18;0.00;0.00;0.00
71794;PMS7003;59641;45.188;5.712;2024-02-23T14:07:44;0.00;0.00;0.00
71794;PMS7003;59641;45.188;5.712;2024-02-23T14:10:09;0.00;0.00;0.00
71794;PMS7003;59641;45.188;5.712;2024-02-23T14:12:35;0.00;0.00;0.00
71794;PMS7003;59641;45.188;5.712;2024-02-23T14:15:00;0.00;0.00;0.00
71794;PMS7003;59641;45.188;5.712;2024-02-23T14:17:26;0.00;0.00;0.00